Time;durP1;ratioP1;P1;durP2;ratioP2;P2;SDS_P1;SDS_P2;PMS_P1;PMS_P2;Temp;Humidity;BMP_temperature;BMP_pressure;BME280_temperature;BME280_humidity;BME280_pressure;Samples;Min_cycle;Max_cycle;Signal;HPM_P1;HPM_P2
2020/12/02 00:03:21;;;;;;;4.43;1.80;;;0.60;99.90;;;;;;20573609;28;20050;-63
2020/12/02 00:13:34;;;;;;;4.30;1.58;;;0.40;99.90;;;;;;20592842;28;20453;-63
2020/12/02 00:23:36;;;;;;;3.55;1.50;;;0.30;99.90;;;;;;20599809;28;20039;-63
2020/12/02 00:33:38;;;;;;;2.60;1.50;;;0.40;99.90;;;;;;20669629;28;20089;-63
2020/12/02 00:43:40;;;;;;;4.93;2.30;;;0.50;99.90;;;;;;20670586;28;20409;-63
2020/12/02 00:53:42;;;;;;;4.50;2.47;;;0.40;99.90;;;;;;20670132;28;20038;-63
2020/12/02 01:03:47;;;;;;;5.60;2.45;;;0.10;99.90;;;;;;20603538;28;20464;-63
2020/12/02 01:13:58;;;;;;;4.53;2.35;;;-0.20;99.90;;;;;;20588169;28;20051;-63
2020/12/02 01:24:08;;;;;;;4.50;2.47;;;-0.40;99.90;;;;;;20587082;28;20059;-62
2020/12/02 01:34:09;;;;;;;5.93;2.13;;;-0.40;99.90;;;;;;20585134;28;20035;-62
2020/12/02 01:44:11;;;;;;;4.55;2.00;;;-0.50;99.90;;;;;;20584589;28;20073;-63
2020/12/02 01:54:27;;;;;;;3.03;1.73;;;-0.40;99.90;;;;;;20585455;28;20366;-63
2020/12/02 02:04:47;;;;;;;4.80;2.33;;;-0.30;99.90;;;;;;20584945;28;20074;-63
2020/12/02 02:15:27;;;;;;;4.93;2.77;;;-0.30;99.90;;;;;;20583648;28;20098;-64
2020/12/02 02:25:29;;;;;;;5.05;2.38;;;-0.50;99.90;;;;;;20559557;28;20114;-62
2020/12/02 02:35:31;;;;;;;5.72;3.00;;;-0.70;99.90;;;;;;20581168;28;20104;-63
2020/12/02 02:45:33;;;;;;;22.95;4.03;;;-1.00;99.90;;;;;;20582213;28;20470;-62
2020/12/02 02:55:35;;;;;;;6.15;3.53;;;-1.10;99.90;;;;;;20581783;28;20413;-62
2020/12/02 03:05:37;;;;;;;4.88;2.70;;;-1.10;99.90;;;;;;20580780;28;20125;-62
2020/12/02 03:15:39;;;;;;;3.47;1.75;;;-1.10;99.90;;;;;;20577096;28;20063;-62
2020/12/02 03:25:43;;;;;;;6.65;2.03;;;-0.90;99.90;;;;;;20581184;28;20101;-62
2020/12/02 03:35:44;;;;;;;3.08;1.70;;;-0.90;99.90;;;;;;20579390;28;20039;-62
2020/12/02 03:45:46;;;;;;;21.02;2.78;;;-0.90;99.90;;;;;;20580008;28;20043;-62
2020/12/02 03:55:48;;;;;;;5.53;3.55;;;-0.90;99.90;;;;;;20579283;28;20035;-61
2020/12/02 04:05:50;;;;;;;6.47;3.60;;;-1.10;99.90;;;;;;20582268;28;20114;-62
2020/12/02 04:15:52;;;;;;;9.05;4.15;;;-1.20;99.90;;;;;;20592339;28;20054;-62
2020/12/02 04:25:53;;;;;;;7.95;3.40;;;-1.30;99.90;;;;;;20591934;28;20059;-62
2020/12/02 04:35:55;;;;;;;3.95;2.40;;;-1.30;99.90;;;;;;20591542;28;20064;-62
2020/12/02 04:45:57;;;;;;;4.32;2.75;;;-1.10;99.90;;;;;;20590707;28;20059;-62
2020/12/02 04:55:59;;;;;;;18.05;2.90;;;-1.20;99.90;;;;;;20590271;28;20081;-62
2020/12/02 05:06:01;;;;;;;5.32;2.78;;;-1.30;99.90;;;;;;20589027;28;20063;-62
2020/12/02 05:16:05;;;;;;;3.25;1.50;;;-1.40;99.90;;;;;;20587381;28;20070;-62
2020/12/02 05:26:17;;;;;;;1.83;1.02;;;-1.30;99.90;;;;;;20586310;28;20548;-62
2020/12/02 05:36:32;;;;;;;1.40;0.63;;;-1.20;99.90;;;;;;20586936;28;20062;-62
2020/12/02 05:46:44;;;;;;;0.80;0.40;;;-1.20;99.90;;;;;;20586556;28;20059;-62
2020/12/02 05:56:46;;;;;;;0.40;0.20;;;-1.30;99.90;;;;;;20584180;28;20034;-62
2020/12/02 06:06:55;;;;;;;0.40;0.20;;;-1.10;99.90;;;;;;20580036;28;20081;-62
2020/12/02 06:16:57;;;;;;;0.43;0.28;;;-0.80;99.90;;;;;;20583577;28;20026;-62
2020/12/02 06:27:00;;;;;;;0.60;0.25;;;-0.80;99.90;;;;;;20581932;28;20062;-61
2020/12/02 06:37:20;;;;;;;0.70;0.30;;;-1.00;99.90;;;;;;20581173;28;20067;-62
2020/12/02 06:47:25;;;;;;;0.88;0.22;;;-1.20;99.90;;;;;;20581972;28;20046;-63
2020/12/02 06:57:29;;;;;;;0.38;0.10;;;-1.10;99.90;;;;;;20582381;28;20047;-62
2020/12/02 07:07:31;;;;;;;0.30;0.20;;;-0.90;99.90;;;;;;20580816;28;20082;-62
2020/12/02 07:17:32;;;;;;;0.13;0.00;;;-0.90;99.90;;;;;;20579367;28;20035;-62
2020/12/02 07:27:40;;;;;;;0.20;0.00;;;-1.10;99.90;;;;;;20578288;28;20117;-61
2020/12/02 07:37:43;;;;;;;0.35;0.10;;;-1.30;99.90;;;;;;20578158;28;20047;-62
2020/12/02 07:47:51;;;;;;;0.68;0.20;;;-1.20;99.90;;;;;;20576040;28;20121;-62
2020/12/02 07:57:54;;;;;;;0.30;0.10;;;-1.20;99.90;;;;;;20595080;28;20035;-62
2020/12/02 08:08:00;;;;;;;0.32;0.13;;;-1.20;99.90;;;;;;20593241;28;20073;-62
2020/12/02 08:18:11;;;;;;;0.17;0.10;;;-1.00;99.90;;;;;;20589850;28;20406;-61
2020/12/02 08:28:18;;;;;;;;;;;-1.00;99.90;;;;;;20592105;28;20477;-62
2020/12/02 08:38:32;;;;;;;0.10;0.10;;;-0.80;99.90;;;;;;20591122;28;20006;-61
2020/12/02 08:48:36;;;;;;;0.10;0.08;;;-0.80;99.90;;;;;;20588517;28;20062;-61
2020/12/02 08:58:37;;;;;;;0.30;0.10;;;-0.70;99.90;;;;;;20570011;28;20062;-62
2020/12/02 09:08:39;;;;;;;0.17;0.10;;;-0.50;99.90;;;;;;20589006;28;20046;-61
2020/12/02 09:18:41;;;;;;;0.10;0.00;;;-0.50;99.90;;;;;;20587805;28;20031;-60
2020/12/02 09:28:44;;;;;;;0.47;0.20;;;-0.40;99.90;;;;;;20587080;28;20038;-61
2020/12/02 09:38:48;;;;;;;0.00;0.00;;;-0.20;99.90;;;;;;20586435;28;20039;-60
2020/12/02 09:48:53;;;;;;;0.45;0.10;;;-0.30;99.90;;;;;;20585768;28;20052;-60
2020/12/02 09:58:58;;;;;;;0.17;0.10;;;-0.20;99.90;;;;;;20583711;28;20051;-60
2020/12/02 10:09:08;;;;;;;0.10;0.10;;;-0.20;99.90;;;;;;20579155;28;20054;-60
2020/12/02 10:19:29;;;;;;;0.52;0.20;;;-0.20;99.90;;;;;;20582102;28;20051;-60
2020/12/02 10:29:50;;;;;;;0.30;0.10;;;-0.40;99.90;;;;;;20583528;28;20444;-59
2020/12/02 10:39:52;;;;;;;0.20;0.10;;;-0.60;99.90;;;;;;20582876;28;20042;-59
2020/12/02 10:49:55;;;;;;;0.28;0.10;;;-0.60;99.90;;;;;;20581561;28;20045;-59
2020/12/02 10:59:59;;;;;;;0.35;0.10;;;-0.40;99.90;;;;;;20580252;28;20058;-57
2020/12/02 11:10:19;;;;;;;0.00;0.00;;;-0.40;99.90;;;;;;20580878;28;20055;-59
2020/12/02 11:20:46;;;;;;;0.15;0.05;;;0.00;99.90;;;;;;20590904;28;20551;-58
2020/12/02 11:30:49;;;;;;;0.10;0.00;;;0.20;99.90;;;;;;20593803;28;20097;-56
2020/12/02 11:40:57;;;;;;;0.00;0.00;;;0.10;99.90;;;;;;20593211;28;20066;-53
2020/12/02 11:51:24;;;;;;;0.10;0.00;;;0.40;99.90;;;;;;20592696;28;20046;-58
2020/12/02 12:12:09;;;;;;;0.75;0.10;;;0.30;99.90;;;;;;20727357;26;20100;-56
2020/12/02 12:22:23;;;;;;;;;;;0.20;99.90;;;;;;20835913;28;20053;-59
2020/12/02 12:32:49;;;;;;;0.10;0.05;;;0.40;99.90;;;;;;20799875;28;19909;-59
2020/12/02 12:42:56;;;;;;;0.60;0.20;;;0.40;99.90;;;;;;20834660;28;20042;-60
2020/12/02 12:53:06;;;;;;;0.40;0.13;;;0.20;99.90;;;;;;20833704;28;20064;-60
2020/12/02 13:03:13;;;;;;;0.30;0.20;;;0.00;99.90;;;;;;20884554;28;20041;-61
2020/12/02 13:13:55;;;;;;;0.30;0.17;;;-0.20;99.90;;;;;;20830286;28;20049;-59
2020/12/02 13:24:12;;;;;;;0.25;0.20;;;-0.30;99.90;;;;;;20812791;28;20533;-62
2020/12/02 13:34:15;;;;;;;0.40;0.30;;;-0.10;99.90;;;;;;20829540;28;20053;-60
2020/12/02 13:44:27;;;;;;;0.30;0.20;;;0.50;99.90;;;;;;20811767;28;20041;-62
2020/12/02 13:54:41;;;;;;;0.55;0.40;;;0.80;99.90;;;;;;20828832;28;20034;-60
2020/12/02 14:05:18;;;;;;;0.60;0.30;;;0.60;99.90;;;;;;20809515;28;20053;-59
2020/12/02 14:15:27;;;;;;;0.68;0.28;;;0.60;99.90;;;;;;20826317;28;20111;-61
2020/12/02 14:25:30;;;;;;;0.40;0.30;;;0.90;99.90;;;;;;20808773;28;20045;-62
2020/12/02 14:35:38;;;;;;;2.17;0.30;;;0.90;99.90;;;;;;20823901;28;20537;-62
2020/12/02 14:45:40;;;;;;;0.28;0.10;;;0.70;99.90;;;;;;20786101;28;20050;-59
2020/12/02 14:55:42;;;;;;;0.82;0.30;;;0.60;99.90;;;;;;20743079;28;20092;-61
2020/12/02 15:05:47;;;;;;;0.57;0.30;;;0.70;99.90;;;;;;20824390;28;20095;-59
2020/12/02 15:15:50;;;;;;;0.38;0.20;;;0.80;99.90;;;;;;20824305;28;20456;-60
2020/12/02 15:25:54;;;;;;;0.20;0.10;;;0.70;99.90;;;;;;20803689;28;20440;-60
2020/12/02 15:36:05;;;;;;;0.60;0.30;;;0.10;99.90;;;;;;20810726;28;20046;-61
2020/12/02 15:46:13;;;;;;;1.70;0.38;;;-0.80;99.90;;;;;;20823128;28;20384;-61
2020/12/02 15:56:24;;;;;;;0.47;0.30;;;-1.30;99.90;;;;;;20821116;28;20037;-61
2020/12/02 16:06:30;;;;;;;0.70;0.32;;;-1.40;99.90;;;;;;20833480;28;20053;-60
2020/12/02 16:16:32;;;;;;;0.95;0.60;;;-0.90;99.90;;;;;;20835897;28;20057;-61
2020/12/02 16:26:36;;;;;;;0.70;0.45;;;-0.90;99.90;;;;;;20835101;28;20384;-61
2020/12/02 16:36:39;;;;;;;0.70;0.32;;;-0.70;99.90;;;;;;20800158;28;20041;-61
2020/12/02 16:46:51;;;;;;;1.92;0.50;;;-0.50;99.90;;;;;;20832489;28;20450;-62
2020/12/02 16:57:11;;;;;;;1.50;0.80;;;-0.40;99.90;;;;;;20834045;28;20041;-61
2020/12/02 17:07:14;;;;;;;2.97;1.50;;;-0.30;99.90;;;;;;20832351;28;20041;-61
2020/12/02 17:17:32;;;;;;;3.58;1.80;;;-0.60;99.90;;;;;;20831680;28;20387;-61
2020/12/02 17:27:52;;;;;;;2.88;1.10;;;-0.50;99.90;;;;;;20830305;28;20045;-61
2020/12/02 17:38:11;;;;;;;2.13;0.97;;;-0.40;99.90;;;;;;20830937;28;20387;-61
2020/12/02 17:48:34;;;;;;;1.50;0.80;;;-0.30;99.90;;;;;;20799281;28;20558;-61
2020/12/02 17:58:40;;;;;;;1.85;1.00;;;-0.20;99.90;;;;;;20771072;28;20041;-61
2020/12/02 18:09:18;;;;;;;1.85;0.90;;;-0.10;99.90;;;;;;20827796;28;20111;-61
2020/12/02 18:19:35;;;;;;;1.55;0.80;;;0.00;99.90;;;;;;20828241;28;20402;-61
2020/12/02 18:29:56;;;;;;;2.08;0.90;;;-0.10;99.90;;;;;;20822987;28;20038;-62
2020/12/02 18:40:09;;;;;;;1.98;1.00;;;-0.10;99.90;;;;;;20826198;28;20049;-61
2020/12/02 18:50:13;;;;;;;1.98;0.88;;;-0.20;99.90;;;;;;20824977;28;20065;-61
2020/12/02 19:00:23;;;;;;;2.33;0.80;;;-0.10;99.90;;;;;;20826248;28;20115;-61
2020/12/02 19:10:26;;;;;;;1.55;0.75;;;0.00;99.90;;;;;;20824587;28;20741;-61
2020/12/02 19:20:51;;;;;;;1.50;1.10;;;-0.10;99.90;;;;;;20750287;28;20099;-61
2020/12/02 19:31:20;;;;;;;1.15;0.73;;;-0.20;99.90;;;;;;20719463;28;20066;-61
2020/12/02 19:41:50;;;;;;;2.63;1.10;;;-0.20;99.90;;;;;;20754719;28;20054;-61
2020/12/02 19:51:56;;;;;;;1.03;0.57;;;-0.10;99.90;;;;;;20756591;28;20038;-62
2020/12/02 20:02:17;;;;;;;2.22;0.50;;;-0.10;99.90;;;;;;20807022;28;20045;-64
2020/12/02 20:12:50;;;;;;;1.15;0.80;;;0.00;99.90;;;;;;20837292;28;20033;-61
2020/12/02 20:23:24;;;;;;;1.20;0.70;;;0.10;99.90;;;;;;20835996;28;20037;-62
2020/12/02 20:33:34;;;;;;;1.30;0.65;;;0.20;99.90;;;;;;20834468;28;20119;-61
2020/12/02 20:43:38;;;;;;;1.35;0.55;;;0.40;99.90;;;;;;20835102;28;20034;-64
2020/12/02 20:53:44;;;;;;;2.75;1.50;;;0.30;99.90;;;;;;20832921;28;20038;-62
2020/12/02 21:03:52;;;;;;;4.43;0.70;;;-0.20;99.90;;;;;;20831292;28;20103;-62
2020/12/02 21:13:55;;;;;;;0.70;0.40;;;-0.60;99.90;;;;;;20831146;28;20034;-62
2020/12/02 21:24:29;;;;;;;0.70;0.30;;;0.00;99.90;;;;;;20832286;28;20041;-62
2020/12/02 21:34:52;;;;;;;0.85;0.50;;;0.30;99.90;;;;;;20829929;28;20057;-62
2020/12/02 21:45:32;;;;;;;0.70;0.30;;;0.40;99.90;;;;;;20828479;28;20184;-62
2020/12/02 21:56:05;;;;;;;0.80;0.30;;;0.40;99.90;;;;;;20827434;28;20388;-63
2020/12/02 22:06:17;;;;;;;3.03;0.50;;;0.30;99.90;;;;;;20827835;28;20041;-62
2020/12/02 22:16:49;;;;;;;5.45;2.72;;;0.30;99.90;;;;;;20827213;28;20037;-62
2020/12/02 22:26:57;;;;;;;5.03;2.70;;;0.00;99.90;;;;;;20826256;28;20057;-63
2020/12/02 22:37:26;;;;;;;5.72;3.20;;;-0.60;99.90;;;;;;20825326;28;20110;-62
2020/12/02 22:47:48;;;;;;;6.18;3.47;;;-1.00;99.90;;;;;;20823552;28;20097;-62
2020/12/02 22:57:50;;;;;;;6.65;3.75;;;-1.20;99.90;;;;;;20824984;28;20045;-62
2020/12/02 23:07:52;;;;;;;6.65;4.07;;;-1.30;99.90;;;;;;20824720;28;20041;-62
2020/12/02 23:18:12;;;;;;;9.77;4.50;;;-1.40;99.90;;;;;;20840570;28;20029;-63
2020/12/02 23:28:51;;;;;;;6.07;3.70;;;-1.50;99.90;;;;;;20840334;28;20100;-64
2020/12/02 23:38:55;;;;;;;7.40;3.83;;;-1.50;99.90;;;;;;20839062;28;20045;-63
2020/12/02 23:49:44;;;;;;;8.32;4.85;;;-1.50;99.90;;;;;;20838761;28;20513;-62
2020/12/02 23:59:46;;;;;;;9.00;4.60;;;-1.60;99.90;;;;;;20617549;28;20494;-63
